This is the latest recevied weather packets stored in our database for station/object DL8TF-13. If no packets are shown the sender has not sent any weather packets the latest 10 day(s).
| Time | Temp. | Humidity | Pressure | Rain* | Wind** | Luminosity | Snow |
|---|---|---|---|---|---|---|---|
| 1777991050 | 15.56° C | 100% | 977 hPa | - | - | - | - |
| 1777990450 | 15° C | 100% | 977 hPa | - | - | - | - |
| 1777989850 | 15° C | 100% | 977 hPa | - | - | - | - |
| 1777989250 | 15° C | 100% | 977 hPa | - | - | - | - |
| 1777988650 | 15° C | 100% | 977 hPa | - | - | - | - |
| 1777988050 | 14.44° C | 100% | 977 hPa | - | - | - | - |
| 1777987449 | 15.56° C | 100% | 977 hPa | - | - | - | - |
| 1777986849 | 20° C | 62% | 976 hPa | - | - | - | - |
| 1777986249 | 20.56° C | 51% | 976 hPa | - | - | - | - |
| 1777985649 | 21.11° C | 50% | 976 hPa | - | - | - | - |
| 1777985049 | 21.11° C | 47% | 976 hPa | - | - | - | - |
| 1777984449 | 21.67° C | 47% | 976 hPa | - | - | - | - |
| 1777983849 | 21.11° C | 48% | 976 hPa | - | - | - | - |
| 1777983249 | 21.11° C | 47% | 976 hPa | - | - | - | - |
| 1777982649 | 21.67° C | 48% | 976 hPa | - | - | - | - |
| 1777982049 | 21.67° C | 48% | 975 hPa | - | - | - | - |
| 1777981449 | 21.67° C | 48% | 975 hPa | - | - | - | - |
| 1777980849 | 21.67° C | 48% | 975 hPa | - | - | - | - |
| 1777980249 | 22.22° C | 47% | 975 hPa | - | - | - | - |
| 1777979648 | 22.22° C | 47% | 976 hPa | - | - | - | - |
| 1777979048 | 22.78° C | 45% | 975 hPa | - | - | - | - |
| 1777978448 | 22.78° C | 45% | 976 hPa | - | - | - | - |
| 1777977848 | 22.78° C | 45% | 976 hPa | - | - | - | - |
| 1777977248 | 22.78° C | 46% | 976 hPa | - | - | - | - |
| 1777976648 | 22.78° C | 45% | 976 hPa | - | - | - | - |
* Rain since midnight (hover to see other rain measurements)
** Current wind speed in m/s (hover to see current wind gust speed)